Agadir, Maroc

01:21 WEST le 02 octobre 2014 (GMT +0100)
Al-Massira | Change Station
CLOSE
Current Station
Aéroport
Location: Agadir Al Massira,
Altitude: 243 ft
Stations météo à proximité

Alt. 243 ft 30.33 °N, 9.40 °W | Updated -527 second ago

Clear
Ciel dégagé
66 ° F
Paraît 66 ° F
N
4
Vent Variable Vent de OSO

Aujourd'hui
Haut(e) -- | Bas -- ° F
--% Risque de précip.
Hier
Haut(e) -- | Bas -- ° F
Precip. -- pouce
7:32 AM 7:22 PM
Premier quartier, 52% visible
Pression 29.95 pouce
Visibilité -9999.0 Miles terrestres
Nuages
Point de rosée 61 ° F
Humidité 83%
Précipitations 0.00 pouce
Profondeur de la couche neigeuse Non disponible.
UV Non disponible.
Pollen Non disponible.
Qualité de l'air Non disponible.
Flu Activity Non disponible.
METAR GMAD 010030Z 24003KT CAVOK 19/16 Q1014 NOSIG

More Conditions Fewer Conditions

Pression 29.95 pouce
Visibilité -9999.0 Miles terrestres
Nuages
Point de rosée 61 ° F
Humidité 83%
Précipitations 0.00 pouce
Profondeur de la couche neigeuse Non disponible.
UV Non disponible.
Pollen Non disponible.
Qualité de l'air Non disponible.
Flu Activity Non disponible.
METAR GMAD 010030Z 24003KT CAVOK 19/16 Q1014 NOSIG

More Conditions Fewer Conditions

10-Day Weather Forecast

Almanac

Astronomie

Oct. 02, 2014 Lever Coucher
Temps réel 07:32 WEST 19:22 WEST
Crépuscule civil 07:08 WEST 19:46 WEST
Crépuscule nautique 06:40 WEST 20:14 WEST
Crépuscule astronomique 06:12 WEST 20:42 WEST
Lune 14:55 WEST 00:58 WEST
Durée de lumière visible 12h 38m
Longueur du jour
11h 50m
Tomorrow will be 1m 50s shorter.
Premier quartier, 52% of the Moon is Illuminated
Oct 1
Premier quartier
Oct 8
Pleine lune
Oct 15
Dernier quartier
Oct 23
Nouveau
Oct 30
Premier quartier

Les extrêmes de température d’hier

Country Highs Country Lows

Community

WunderPhotos

Upload Photos

1,758,097 Photos téléchargées !

WunderBlogs® & News

Nearby

Qualité de l'air

Not available.

Épaisseur de neige

Not available.

Activité sismique

Ville Distance Mag. Time & Date
No recent earthquake activity has been reported nearby.
Minimum magnitude displayed is 2.5.

Températures des eaux côtières

Lieu Température
Aucun rapport de station

Stations météo à proximité